sensor_id;sensor_type;location;lat;lon;timestamp;P1;durP1;ratioP1;P2;durP2;ratioP2
73850;SDS011;62190;51.548;5.688;2023-03-11T00:00:44;42.93;;;10.78;;
73850;SDS011;62190;51.548;5.688;2023-03-11T00:03:17;34.75;;;9.68;;
73850;SDS011;62190;51.548;5.688;2023-03-11T00:05:50;40.08;;;9.60;;
73850;SDS011;62190;51.548;5.688;2023-03-11T00:08:20;32.75;;;8.53;;
73850;SDS011;62190;51.548;5.688;2023-03-11T00:10:53;46.70;;;12.65;;
73850;SDS011;62190;51.548;5.688;2023-03-11T00:13:23;33.98;;;8.75;;
73850;SDS011;62190;51.548;5.688;2023-03-11T00:15:55;90.47;;;29.12;;
73850;SDS011;62190;51.548;5.688;2023-03-11T00:18:22;32.60;;;10.35;;
73850;SDS011;62190;51.548;5.688;2023-03-11T00:20:52;18.80;;;6.62;;
73850;SDS011;62190;51.548;5.688;2023-03-11T00:23:20;21.07;;;5.80;;
73850;SDS011;62190;51.548;5.688;2023-03-11T00:25:52;15.38;;;3.35;;
73850;SDS011;62190;51.548;5.688;2023-03-11T00:28:20;11.43;;;4.47;;
73850;SDS011;62190;51.548;5.688;2023-03-11T00:30:49;10.15;;;2.10;;
73850;SDS011;62190;51.548;5.688;2023-03-11T00:33:20;8.15;;;2.50;;
73850;SDS011;62190;51.548;5.688;2023-03-11T00:35:53;6.63;;;1.40;;
73850;SDS011;62190;51.548;5.688;2023-03-11T00:38:20;6.25;;;1.57;;
73850;SDS011;62190;51.548;5.688;2023-03-11T00:40:48;6.97;;;1.20;;
73850;SDS011;62190;51.548;5.688;2023-03-11T00:43:17;4.17;;;1.65;;
73850;SDS011;62190;51.548;5.688;2023-03-11T00:45:46;6.45;;;1.85;;
73850;SDS011;62190;51.548;5.688;2023-03-11T00:48:17;5.30;;;1.22;;
73850;SDS011;62190;51.548;5.688;2023-03-11T00:50:44;5.65;;;1.32;;
73850;SDS011;62190;51.548;5.688;2023-03-11T00:53:15;5.37;;;1.20;;
73850;SDS011;62190;51.548;5.688;2023-03-11T00:55:48;5.62;;;1.60;;
73850;SDS011;62190;51.548;5.688;2023-03-11T00:58:16;7.60;;;1.15;;
73850;SDS011;62190;51.548;5.688;2023-03-11T01:00:45;9.63;;;1.85;;
73850;SDS011;62190;51.548;5.688;2023-03-11T01:03:12;5.67;;;1.45;;
73850;SDS011;62190;51.548;5.688;2023-03-11T01:05:43;4.37;;;1.07;;
73850;SDS011;62190;51.548;5.688;2023-03-11T01:08:10;7.65;;;1.00;;
73850;SDS011;62190;51.548;5.688;2023-03-11T01:10:38;4.85;;;1.22;;
73850;SDS011;62190;51.548;5.688;2023-03-11T01:13:09;5.05;;;1.05;;
73850;SDS011;62190;51.548;5.688;2023-03-11T01:15:39;9.80;;;1.42;;
73850;SDS011;62190;51.548;5.688;2023-03-11T01:18:07;5.70;;;1.30;;
73850;SDS011;62190;51.548;5.688;2023-03-11T01:20:36;8.58;;;1.17;;
73850;SDS011;62190;51.548;5.688;2023-03-11T01:23:08;7.62;;;1.22;;
73850;SDS011;62190;51.548;5.688;2023-03-11T01:25:36;10.00;;;1.07;;
73850;SDS011;62190;51.548;5.688;2023-03-11T01:28:08;4.17;;;1.10;;
73850;SDS011;62190;51.548;5.688;2023-03-11T01:30:40;5.58;;;1.47;;
73850;SDS011;62190;51.548;5.688;2023-03-11T01:33:10;6.90;;;1.52;;
73850;SDS011;62190;51.548;5.688;2023-03-11T01:38:20;3.80;;;0.80;;
73850;SDS011;62190;51.548;5.688;2023-03-11T01:40:53;5.35;;;0.95;;
73850;SDS011;62190;51.548;5.688;2023-03-11T01:48:54;1.45;;;0.85;;
73850;SDS011;62190;51.548;5.688;2023-03-11T01:51:43;5.72;;;1.98;;
73850;SDS011;62190;51.548;5.688;2023-03-11T01:56:59;5.35;;;1.10;;
73850;SDS011;62190;51.548;5.688;2023-03-11T01:59:41;3.92;;;1.37;;
73850;SDS011;62190;51.548;5.688;2023-03-11T02:04:53;7.08;;;1.60;;
73850;SDS011;62190;51.548;5.688;2023-03-11T02:07:25;9.15;;;1.40;;
73850;SDS011;62190;51.548;5.688;2023-03-11T02:09:57;4.12;;;1.25;;
73850;SDS011;62190;51.548;5.688;2023-03-11T02:12:34;3.95;;;0.93;;
73850;SDS011;62190;51.548;5.688;2023-03-11T02:15:08;3.98;;;1.25;;
73850;SDS011;62190;51.548;5.688;2023-03-11T02:17:39;2.50;;;0.80;;
73850;SDS011;62190;51.548;5.688;2023-03-11T02:23:18;3.77;;;0.95;;
73850;SDS011;62190;51.548;5.688;2023-03-11T02:25:58;6.25;;;1.00;;
73850;SDS011;62190;51.548;5.688;2023-03-11T02:28:28;4.12;;;1.07;;
73850;SDS011;62190;51.548;5.688;2023-03-11T02:31:01;8.45;;;1.55;;
73850;SDS011;62190;51.548;5.688;2023-03-11T02:33:31;5.28;;;1.00;;
73850;SDS011;62190;51.548;5.688;2023-03-11T02:36:00;7.08;;;1.32;;
73850;SDS011;62190;51.548;5.688;2023-03-11T02:38:32;4.70;;;0.90;;
73850;SDS011;62190;51.548;5.688;2023-03-11T02:41:00;8.78;;;1.70;;
73850;SDS011;62190;51.548;5.688;2023-03-11T02:43:33;7.03;;;1.25;;
73850;SDS011;62190;51.548;5.688;2023-03-11T02:46:01;5.70;;;1.20;;
73850;SDS011;62190;51.548;5.688;2023-03-11T02:48:32;4.90;;;1.10;;
73850;SDS011;62190;51.548;5.688;2023-03-11T02:51:00;5.10;;;1.20;;
73850;SDS011;62190;51.548;5.688;2023-03-11T02:53:33;5.92;;;0.88;;
73850;SDS011;62190;51.548;5.688;2023-03-11T02:56:04;7.53;;;1.57;;
73850;SDS011;62190;51.548;5.688;2023-03-11T02:58:34;7.28;;;3.33;;
73850;SDS011;62190;51.548;5.688;2023-03-11T03:01:03;8.63;;;1.80;;
73850;SDS011;62190;51.548;5.688;2023-03-11T03:03:31;5.90;;;1.27;;
73850;SDS011;62190;51.548;5.688;2023-03-11T03:06:00;3.72;;;1.75;;
73850;SDS011;62190;51.548;5.688;2023-03-11T03:08:32;6.58;;;1.22;;
73850;SDS011;62190;51.548;5.688;2023-03-11T03:10:59;5.70;;;1.35;;
73850;SDS011;62190;51.548;5.688;2023-03-11T03:13:28;2.98;;;1.20;;
73850;SDS011;62190;51.548;5.688;2023-03-11T03:15:58;6.22;;;1.30;;
73850;SDS011;62190;51.548;5.688;2023-03-11T03:18:25;9.38;;;1.87;;
73850;SDS011;62190;51.548;5.688;2023-03-11T03:20:54;4.25;;;1.50;;
73850;SDS011;62190;51.548;5.688;2023-03-11T03:23:24;8.20;;;1.85;;
73850;SDS011;62190;51.548;5.688;2023-03-11T03:25:58;8.35;;;1.50;;
73850;SDS011;62190;51.548;5.688;2023-03-11T03:28:27;8.40;;;1.62;;
73850;SDS011;62190;51.548;5.688;2023-03-11T03:31:02;7.85;;;1.50;;
73850;SDS011;62190;51.548;5.688;2023-03-11T03:33:29;7.35;;;1.72;;
73850;SDS011;62190;51.548;5.688;2023-03-11T03:36:01;3.77;;;1.47;;
73850;SDS011;62190;51.548;5.688;2023-03-11T03:38:31;5.15;;;1.32;;
73850;SDS011;62190;51.548;5.688;2023-03-11T03:41:00;4.28;;;1.47;;
73850;SDS011;62190;51.548;5.688;2023-03-11T03:46:04;6.10;;;1.30;;
73850;SDS011;62190;51.548;5.688;2023-03-11T03:48:33;8.58;;;2.17;;
73850;SDS011;62190;51.548;5.688;2023-03-11T03:51:03;8.28;;;1.65;;
73850;SDS011;62190;51.548;5.688;2023-03-11T03:53:32;7.03;;;1.50;;
73850;SDS011;62190;51.548;5.688;2023-03-11T03:56:09;6.08;;;1.20;;
73850;SDS011;62190;51.548;5.688;2023-03-11T03:58:47;10.05;;;1.47;;
73850;SDS011;62190;51.548;5.688;2023-03-11T04:01:15;4.35;;;1.62;;
73850;SDS011;62190;51.548;5.688;2023-03-11T04:03:44;5.72;;;1.05;;
73850;SDS011;62190;51.548;5.688;2023-03-11T04:06:19;6.08;;;1.30;;
73850;SDS011;62190;51.548;5.688;2023-03-11T04:08:49;6.05;;;1.20;;
73850;SDS011;62190;51.548;5.688;2023-03-11T04:11:17;6.40;;;1.22;;
73850;SDS011;62190;51.548;5.688;2023-03-11T04:13:46;8.80;;;1.67;;
73850;SDS011;62190;51.548;5.688;2023-03-11T04:16:16;3.58;;;1.32;;
73850;SDS011;62190;51.548;5.688;2023-03-11T04:18:46;5.35;;;1.35;;
73850;SDS011;62190;51.548;5.688;2023-03-11T04:21:13;6.62;;;1.25;;
73850;SDS011;62190;51.548;5.688;2023-03-11T04:23:41;5.35;;;1.42;;
73850;SDS011;62190;51.548;5.688;2023-03-11T04:26:08;4.70;;;1.60;;
73850;SDS011;62190;51.548;5.688;2023-03-11T04:28:36;8.10;;;1.85;;
73850;SDS011;62190;51.548;5.688;2023-03-11T04:31:03;7.03;;;1.45;;
73850;SDS011;62190;51.548;5.688;2023-03-11T04:33:31;12.10;;;1.90;;
73850;SDS011;62190;51.548;5.688;2023-03-11T04:36:03;9.20;;;1.90;;
73850;SDS011;62190;51.548;5.688;2023-03-11T04:38:32;4.47;;;1.30;;
73850;SDS011;62190;51.548;5.688;2023-03-11T04:41:00;5.47;;;1.82;;
73850;SDS011;62190;51.548;5.688;2023-03-11T04:43:28;3.17;;;1.50;;
73850;SDS011;62190;51.548;5.688;2023-03-11T04:45:56;8.03;;;1.90;;
73850;SDS011;62190;51.548;5.688;2023-03-11T04:48:25;8.70;;;2.50;;
73850;SDS011;62190;51.548;5.688;2023-03-11T04:50:52;5.53;;;1.72;;
73850;SDS011;62190;51.548;5.688;2023-03-11T04:53:20;7.67;;;1.12;;
73850;SDS011;62190;51.548;5.688;2023-03-11T04:55:49;7.08;;;1.70;;
73850;SDS011;62190;51.548;5.688;2023-03-11T04:58:19;2.62;;;1.12;;
73850;SDS011;62190;51.548;5.688;2023-03-11T05:00:46;5.80;;;1.50;;
73850;SDS011;62190;51.548;5.688;2023-03-11T05:03:13;3.72;;;1.42;;
73850;SDS011;62190;51.548;5.688;2023-03-11T05:05:41;6.62;;;1.65;;
73850;SDS011;62190;51.548;5.688;2023-03-11T05:08:08;9.03;;;1.50;;
73850;SDS011;62190;51.548;5.688;2023-03-11T05:10:35;8.43;;;1.50;;
73850;SDS011;62190;51.548;5.688;2023-03-11T05:13:04;6.37;;;1.55;;
73850;SDS011;62190;51.548;5.688;2023-03-11T05:15:35;7.15;;;1.50;;
73850;SDS011;62190;51.548;5.688;2023-03-11T05:18:02;8.23;;;1.77;;
73850;SDS011;62190;51.548;5.688;2023-03-11T05:20:32;7.80;;;1.92;;
73850;SDS011;62190;51.548;5.688;2023-03-11T05:22:59;8.68;;;1.75;;
73850;SDS011;62190;51.548;5.688;2023-03-11T05:25:26;4.70;;;1.90;;
73850;SDS011;62190;51.548;5.688;2023-03-11T05:27:53;9.38;;;1.82;;
73850;SDS011;62190;51.548;5.688;2023-03-11T05:30:21;8.75;;;1.72;;
73850;SDS011;62190;51.548;5.688;2023-03-11T05:32:48;7.03;;;2.12;;
73850;SDS011;62190;51.548;5.688;2023-03-11T05:35:15;10.05;;;2.15;;
73850;SDS011;62190;51.548;5.688;2023-03-11T05:37:43;5.47;;;2.00;;
73850;SDS011;62190;51.548;5.688;2023-03-11T05:40:12;3.72;;;1.80;;
73850;SDS011;62190;51.548;5.688;2023-03-11T05:42:39;11.10;;;2.20;;
73850;SDS011;62190;51.548;5.688;2023-03-11T05:45:07;6.22;;;1.60;;
73850;SDS011;62190;51.548;5.688;2023-03-11T05:47:35;8.25;;;2.30;;
73850;SDS011;62190;51.548;5.688;2023-03-11T05:50:06;5.67;;;2.00;;
73850;SDS011;62190;51.548;5.688;2023-03-11T05:52:38;7.00;;;1.90;;
73850;SDS011;62190;51.548;5.688;2023-03-11T05:55:05;7.20;;;1.75;;
73850;SDS011;62190;51.548;5.688;2023-03-11T05:57:36;4.97;;;1.52;;
73850;SDS011;62190;51.548;5.688;2023-03-11T06:00:04;4.70;;;1.85;;
73850;SDS011;62190;51.548;5.688;2023-03-11T06:02:38;6.97;;;2.05;;
73850;SDS011;62190;51.548;5.688;2023-03-11T06:05:06;8.38;;;2.17;;
73850;SDS011;62190;51.548;5.688;2023-03-11T06:07:35;9.88;;;2.50;;
73850;SDS011;62190;51.548;5.688;2023-03-11T06:10:03;5.10;;;2.40;;
73850;SDS011;62190;51.548;5.688;2023-03-11T06:12:32;5.25;;;2.02;;
73850;SDS011;62190;51.548;5.688;2023-03-11T06:15:01;7.42;;;2.05;;
73850;SDS011;62190;51.548;5.688;2023-03-11T06:17:28;7.67;;;1.77;;
73850;SDS011;62190;51.548;5.688;2023-03-11T06:19:56;5.53;;;2.20;;
73850;SDS011;62190;51.548;5.688;2023-03-11T06:22:23;3.45;;;1.67;;
73850;SDS011;62190;51.548;5.688;2023-03-11T06:24:50;9.78;;;2.67;;
73850;SDS011;62190;51.548;5.688;2023-03-11T06:27:18;8.00;;;2.42;;
73850;SDS011;62190;51.548;5.688;2023-03-11T06:29:45;7.78;;;2.42;;
73850;SDS011;62190;51.548;5.688;2023-03-11T06:32:12;6.17;;;2.12;;
73850;SDS011;62190;51.548;5.688;2023-03-11T06:34:39;6.58;;;2.50;;
73850;SDS011;62190;51.548;5.688;2023-03-11T06:37:07;4.03;;;2.25;;
73850;SDS011;62190;51.548;5.688;2023-03-11T06:39:34;4.70;;;2.45;;
73850;SDS011;62190;51.548;5.688;2023-03-11T06:42:01;9.60;;;3.08;;
73850;SDS011;62190;51.548;5.688;2023-03-11T06:44:29;7.05;;;2.55;;
73850;SDS011;62190;51.548;5.688;2023-03-11T06:46:56;8.75;;;3.00;;
73850;SDS011;62190;51.548;5.688;2023-03-11T06:49:23;8.80;;;2.80;;
73850;SDS011;62190;51.548;5.688;2023-03-11T06:51:51;7.90;;;2.75;;
73850;SDS011;62190;51.548;5.688;2023-03-11T06:54:18;7.42;;;3.08;;
73850;SDS011;62190;51.548;5.688;2023-03-11T06:56:45;11.95;;;4.28;;
73850;SDS011;62190;51.548;5.688;2023-03-11T06:59:13;12.35;;;3.67;;
73850;SDS011;62190;51.548;5.688;2023-03-11T07:01:41;10.10;;;3.50;;
73850;SDS011;62190;51.548;5.688;2023-03-11T07:04:09;13.40;;;4.28;;
73850;SDS011;62190;51.548;5.688;2023-03-11T07:06:40;11.43;;;4.70;;
73850;SDS011;62190;51.548;5.688;2023-03-11T07:09:08;11.25;;;3.72;;
73850;SDS011;62190;51.548;5.688;2023-03-11T07:11:35;9.95;;;4.25;;
73850;SDS011;62190;51.548;5.688;2023-03-11T07:14:02;12.07;;;3.72;;
73850;SDS011;62190;51.548;5.688;2023-03-11T07:16:29;17.37;;;9.60;;
73850;SDS011;62190;51.548;5.688;2023-03-11T07:18:57;15.18;;;5.33;;
73850;SDS011;62190;51.548;5.688;2023-03-11T07:21:28;10.13;;;3.90;;
73850;SDS011;62190;51.548;5.688;2023-03-11T07:23:58;8.50;;;3.52;;
73850;SDS011;62190;51.548;5.688;2023-03-11T07:26:28;11.30;;;3.95;;
73850;SDS011;62190;51.548;5.688;2023-03-11T07:28:56;10.08;;;4.35;;
73850;SDS011;62190;51.548;5.688;2023-03-11T07:31:25;6.40;;;2.72;;
73850;SDS011;62190;51.548;5.688;2023-03-11T07:33:55;7.08;;;3.15;;
73850;SDS011;62190;51.548;5.688;2023-03-11T07:36:23;8.00;;;3.77;;
73850;SDS011;62190;51.548;5.688;2023-03-11T07:38:55;10.70;;;2.77;;
73850;SDS011;62190;51.548;5.688;2023-03-11T07:41:29;8.03;;;2.58;;
73850;SDS011;62190;51.548;5.688;2023-03-11T07:43:58;6.67;;;1.75;;
73850;SDS011;62190;51.548;5.688;2023-03-11T07:46:26;4.80;;;1.60;;
73850;SDS011;62190;51.548;5.688;2023-03-11T07:48:54;6.72;;;1.80;;
73850;SDS011;62190;51.548;5.688;2023-03-11T07:51:28;4.05;;;1.15;;
73850;SDS011;62190;51.548;5.688;2023-03-11T07:53:53;3.55;;;1.57;;
73850;SDS011;62190;51.548;5.688;2023-03-11T07:56:22;6.62;;;1.35;;
73850;SDS011;62190;51.548;5.688;2023-03-11T07:58:50;5.35;;;1.60;;
73850;SDS011;62190;51.548;5.688;2023-03-11T08:01:19;7.97;;;4.10;;
73850;SDS011;62190;51.548;5.688;2023-03-11T08:03:48;3.67;;;1.55;;
73850;SDS011;62190;51.548;5.688;2023-03-11T08:06:19;3.47;;;1.52;;
73850;SDS011;62190;51.548;5.688;2023-03-11T08:08:49;12.53;;;3.80;;
73850;SDS011;62190;51.548;5.688;2023-03-11T08:11:17;30.17;;;15.20;;
73850;SDS011;62190;51.548;5.688;2023-03-11T08:13:45;11.50;;;5.92;;
73850;SDS011;62190;51.548;5.688;2023-03-11T08:16:14;7.03;;;3.05;;
73850;SDS011;62190;51.548;5.688;2023-03-11T08:18:43;11.43;;;2.80;;
73850;SDS011;62190;51.548;5.688;2023-03-11T08:21:15;7.75;;;3.55;;
73850;SDS011;62190;51.548;5.688;2023-03-11T08:23:42;4.90;;;1.85;;
73850;SDS011;62190;51.548;5.688;2023-03-11T08:26:13;4.72;;;1.70;;
73850;SDS011;62190;51.548;5.688;2023-03-11T08:28:42;6.90;;;1.72;;
73850;SDS011;62190;51.548;5.688;2023-03-11T08:31:16;3.87;;;2.37;;
73850;SDS011;62190;51.548;5.688;2023-03-11T08:33:47;4.40;;;1.72;;
73850;SDS011;62190;51.548;5.688;2023-03-11T08:36:16;6.20;;;1.90;;
73850;SDS011;62190;51.548;5.688;2023-03-11T08:38:43;4.47;;;2.10;;
73850;SDS011;62190;51.548;5.688;2023-03-11T08:41:11;4.10;;;1.32;;
73850;SDS011;62190;51.548;5.688;2023-03-11T08:43:38;7.47;;;1.70;;
73850;SDS011;62190;51.548;5.688;2023-03-11T08:46:07;4.97;;;1.50;;
73850;SDS011;62190;51.548;5.688;2023-03-11T08:48:36;5.65;;;1.37;;
73850;SDS011;62190;51.548;5.688;2023-03-11T08:51:10;4.53;;;0.90;;
73850;SDS011;62190;51.548;5.688;2023-03-11T08:53:38;3.87;;;1.10;;
73850;SDS011;62190;51.548;5.688;2023-03-11T08:56:06;6.28;;;1.15;;
73850;SDS011;62190;51.548;5.688;2023-03-11T08:58:34;5.12;;;1.00;;
73850;SDS011;62190;51.548;5.688;2023-03-11T09:01:01;8.50;;;1.30;;
73850;SDS011;62190;51.548;5.688;2023-03-11T09:03:32;4.35;;;1.30;;
73850;SDS011;62190;51.548;5.688;2023-03-11T09:06:01;3.72;;;1.62;;
73850;SDS011;62190;51.548;5.688;2023-03-11T09:08:30;3.70;;;0.90;;
73850;SDS011;62190;51.548;5.688;2023-03-11T09:10:57;4.10;;;1.25;;
73850;SDS011;62190;51.548;5.688;2023-03-11T09:13:26;5.03;;;1.40;;
73850;SDS011;62190;51.548;5.688;2023-03-11T09:15:54;5.20;;;1.37;;
73850;SDS011;62190;51.548;5.688;2023-03-11T09:18:21;4.42;;;0.95;;
73850;SDS011;62190;51.548;5.688;2023-03-11T09:20:49;3.65;;;0.90;;
73850;SDS011;62190;51.548;5.688;2023-03-11T09:23:16;2.62;;;1.02;;
73850;SDS011;62190;51.548;5.688;2023-03-11T09:25:43;3.92;;;0.70;;
73850;SDS011;62190;51.548;5.688;2023-03-11T09:28:11;4.28;;;0.65;;
73850;SDS011;62190;51.548;5.688;2023-03-11T09:30:38;2.05;;;0.70;;
73850;SDS011;62190;51.548;5.688;2023-03-11T09:33:06;2.98;;;1.07;;
73850;SDS011;62190;51.548;5.688;2023-03-11T09:35:34;3.83;;;0.70;;
73850;SDS011;62190;51.548;5.688;2023-03-11T09:38:03;4.30;;;0.60;;
73850;SDS011;62190;51.548;5.688;2023-03-11T09:43:24;6.05;;;1.25;;
73850;SDS011;62190;51.548;5.688;2023-03-11T09:48:48;2.15;;;0.50;;
73850;SDS011;62190;51.548;5.688;2023-03-11T09:51:35;9.40;;;2.55;;
73850;SDS011;62190;51.548;5.688;2023-03-11T09:54:02;2.40;;;0.60;;
73850;SDS011;62190;51.548;5.688;2023-03-11T09:56:32;2.30;;;0.82;;
73850;SDS011;62190;51.548;5.688;2023-03-11T09:59:01;2.05;;;0.47;;
73850;SDS011;62190;51.548;5.688;2023-03-11T10:01:43;5.17;;;0.95;;
73850;SDS011;62190;51.548;5.688;2023-03-11T10:04:13;3.58;;;0.47;;
73850;SDS011;62190;51.548;5.688;2023-03-11T10:06:45;2.75;;;0.50;;
73850;SDS011;62190;51.548;5.688;2023-03-11T10:14:47;2.58;;;0.50;;
73850;SDS011;62190;51.548;5.688;2023-03-11T10:20:06;1.82;;;0.33;;
73850;SDS011;62190;51.548;5.688;2023-03-11T10:22:46;4.47;;;0.50;;
73850;SDS011;62190;51.548;5.688;2023-03-11T10:25:24;2.00;;;0.50;;
73850;SDS011;62190;51.548;5.688;2023-03-11T10:28:08;2.85;;;0.60;;
73850;SDS011;62190;51.548;5.688;2023-03-11T10:30:34;4.35;;;0.70;;
73850;SDS011;62190;51.548;5.688;2023-03-11T10:36:00;2.50;;;0.90;;
73850;SDS011;62190;51.548;5.688;2023-03-11T10:38:33;2.80;;;0.80;;
73850;SDS011;62190;51.548;5.688;2023-03-11T10:41:04;5.87;;;0.65;;
73850;SDS011;62190;51.548;5.688;2023-03-11T10:43:37;4.55;;;0.50;;
73850;SDS011;62190;51.548;5.688;2023-03-11T10:46:12;3.67;;;0.57;;
73850;SDS011;62190;51.548;5.688;2023-03-11T10:48:43;2.47;;;0.53;;
73850;SDS011;62190;51.548;5.688;2023-03-11T10:53:49;3.92;;;0.70;;
73850;SDS011;62190;51.548;5.688;2023-03-11T10:56:24;4.03;;;0.62;;
73850;SDS011;62190;51.548;5.688;2023-03-11T10:58:52;3.62;;;0.70;;
73850;SDS011;62190;51.548;5.688;2023-03-11T11:01:20;2.87;;;0.80;;
73850;SDS011;62190;51.548;5.688;2023-03-11T11:03:48;2.85;;;0.57;;
73850;SDS011;62190;51.548;5.688;2023-03-11T11:06:21;2.47;;;0.80;;
73850;SDS011;62190;51.548;5.688;2023-03-11T11:11:42;2.77;;;0.60;;
73850;SDS011;62190;51.548;5.688;2023-03-11T11:14:11;2.65;;;0.60;;
73850;SDS011;62190;51.548;5.688;2023-03-11T11:16:38;4.08;;;0.70;;
73850;SDS011;62190;51.548;5.688;2023-03-11T11:19:09;2.87;;;0.68;;
73850;SDS011;62190;51.548;5.688;2023-03-11T11:21:40;3.00;;;0.53;;
73850;SDS011;62190;51.548;5.688;2023-03-11T11:24:11;4.53;;;0.60;;
73850;SDS011;62190;51.548;5.688;2023-03-11T11:26:40;1.47;;;0.70;;
73850;SDS011;62190;51.548;5.688;2023-03-11T11:31:42;5.30;;;1.15;;
73850;SDS011;62190;51.548;5.688;2023-03-11T11:36:59;3.08;;;0.60;;
73850;SDS011;62190;51.548;5.688;2023-03-11T11:39:39;4.10;;;1.25;;
73850;SDS011;62190;51.548;5.688;2023-03-11T11:42:19;2.92;;;0.60;;
73850;SDS011;62190;51.548;5.688;2023-03-11T11:44:48;4.03;;;0.80;;
73850;SDS011;62190;51.548;5.688;2023-03-11T11:47:22;2.10;;;0.70;;
73850;SDS011;62190;51.548;5.688;2023-03-11T11:49:57;3.45;;;0.70;;
73850;SDS011;62190;51.548;5.688;2023-03-11T11:52:27;1.92;;;0.60;;
73850;SDS011;62190;51.548;5.688;2023-03-11T11:55:01;2.87;;;0.50;;
73850;SDS011;62190;51.548;5.688;2023-03-11T11:57:48;2.83;;;0.57;;
73850;SDS011;62190;51.548;5.688;2023-03-11T12:00:20;3.27;;;0.60;;
73850;SDS011;62190;51.548;5.688;2023-03-11T12:05:44;5.30;;;0.72;;
73850;SDS011;62190;51.548;5.688;2023-03-11T12:08:38;3.45;;;0.50;;
73850;SDS011;62190;51.548;5.688;2023-03-11T12:11:27;2.60;;;0.50;;
73850;SDS011;62190;51.548;5.688;2023-03-11T12:19:38;1.50;;;0.28;;
73850;SDS011;62190;51.548;5.688;2023-03-11T12:27:57;1.52;;;0.50;;
73850;SDS011;62190;51.548;5.688;2023-03-11T12:30:29;1.50;;;0.45;;
73850;SDS011;62190;51.548;5.688;2023-03-11T12:33:02;1.57;;;0.50;;
73850;SDS011;62190;51.548;5.688;2023-03-11T12:35:32;2.58;;;0.60;;
73850;SDS011;62190;51.548;5.688;2023-03-11T12:38:04;2.50;;;0.30;;
73850;SDS011;62190;51.548;5.688;2023-03-11T12:45:59;1.40;;;0.30;;
73850;SDS011;62190;51.548;5.688;2023-03-11T12:51:02;1.00;;;0.50;;
73850;SDS011;62190;51.548;5.688;2023-03-11T12:53:43;2.25;;;0.40;;
73850;SDS011;62190;51.548;5.688;2023-03-11T12:56:29;2.67;;;0.60;;
73850;SDS011;62190;51.548;5.688;2023-03-11T13:07:24;3.58;;;0.70;;
73850;SDS011;62190;51.548;5.688;2023-03-11T13:10:09;3.85;;;1.12;;
73850;SDS011;62190;51.548;5.688;2023-03-11T13:12:48;2.92;;;1.75;;
73850;SDS011;62190;51.548;5.688;2023-03-11T13:17:57;7.47;;;1.45;;
73850;SDS011;62190;51.548;5.688;2023-03-11T13:23:19;3.77;;;0.78;;
73850;SDS011;62190;51.548;5.688;2023-03-11T13:33:49;1.70;;;0.55;;
73850;SDS011;62190;51.548;5.688;2023-03-11T13:41:57;2.20;;;0.88;;
73850;SDS011;62190;51.548;5.688;2023-03-11T13:44:29;7.33;;;0.70;;
73850;SDS011;62190;51.548;5.688;2023-03-11T13:47:06;2.70;;;0.60;;
73850;SDS011;62190;51.548;5.688;2023-03-11T13:52:31;2.83;;;0.50;;
73850;SDS011;62190;51.548;5.688;2023-03-11T13:57:53;3.50;;;0.90;;
73850;SDS011;62190;51.548;5.688;2023-03-11T14:00:25;1.67;;;0.68;;
73850;SDS011;62190;51.548;5.688;2023-03-11T14:03:02;2.07;;;0.80;;
73850;SDS011;62190;51.548;5.688;2023-03-11T14:05:32;2.40;;;0.80;;
73850;SDS011;62190;51.548;5.688;2023-03-11T14:08:12;3.92;;;0.75;;
73850;SDS011;62190;51.548;5.688;2023-03-11T14:10:58;3.12;;;0.50;;
73850;SDS011;62190;51.548;5.688;2023-03-11T14:13:30;1.17;;;0.60;;
73850;SDS011;62190;51.548;5.688;2023-03-11T14:16:00;2.70;;;0.88;;
73850;SDS011;62190;51.548;5.688;2023-03-11T14:18:38;1.90;;;0.50;;
73850;SDS011;62190;51.548;5.688;2023-03-11T14:21:21;2.87;;;0.50;;
73850;SDS011;62190;51.548;5.688;2023-03-11T14:23:53;2.37;;;0.55;;
73850;SDS011;62190;51.548;5.688;2023-03-11T14:26:22;2.77;;;0.70;;
73850;SDS011;62190;51.548;5.688;2023-03-11T14:28:54;2.65;;;0.60;;
73850;SDS011;62190;51.548;5.688;2023-03-11T14:31:31;1.35;;;0.50;;
73850;SDS011;62190;51.548;5.688;2023-03-11T14:34:13;3.12;;;0.53;;
73850;SDS011;62190;51.548;5.688;2023-03-11T14:36:56;3.65;;;0.72;;
73850;SDS011;62190;51.548;5.688;2023-03-11T14:39:34;3.50;;;0.60;;
73850;SDS011;62190;51.548;5.688;2023-03-11T14:45:10;2.20;;;0.40;;
73850;SDS011;62190;51.548;5.688;2023-03-11T14:50:53;3.42;;;0.60;;
73850;SDS011;62190;51.548;5.688;2023-03-11T14:56:00;6.33;;;1.00;;
73850;SDS011;62190;51.548;5.688;2023-03-11T14:58:48;3.80;;;0.90;;
73850;SDS011;62190;51.548;5.688;2023-03-11T15:01:28;5.70;;;2.20;;
73850;SDS011;62190;51.548;5.688;2023-03-11T15:04:01;2.60;;;0.65;;
73850;SDS011;62190;51.548;5.688;2023-03-11T15:06:29;1.92;;;0.78;;
73850;SDS011;62190;51.548;5.688;2023-03-11T15:11:27;2.80;;;0.65;;
73850;SDS011;62190;51.548;5.688;2023-03-11T15:14:12;4.90;;;1.00;;
73850;SDS011;62190;51.548;5.688;2023-03-11T15:16:44;2.47;;;0.65;;
73850;SDS011;62190;51.548;5.688;2023-03-11T15:23:01;4.00;;;0.70;;
73850;SDS011;62190;51.548;5.688;2023-03-11T15:24:51;3.22;;;0.88;;
73850;SDS011;62190;51.548;5.688;2023-03-11T15:27:31;2.35;;;0.78;;
73850;SDS011;62190;51.548;5.688;2023-03-11T15:30:01;8.15;;;1.25;;
73850;SDS011;62190;51.548;5.688;2023-03-11T15:35:17;2.60;;;0.88;;
73850;SDS011;62190;51.548;5.688;2023-03-11T15:40:56;3.58;;;0.80;;
73850;SDS011;62190;51.548;5.688;2023-03-11T15:43:33;2.77;;;0.82;;
73850;SDS011;62190;51.548;5.688;2023-03-11T15:46:15;3.00;;;0.60;;
73850;SDS011;62190;51.548;5.688;2023-03-11T15:48:44;1.52;;;0.60;;
73850;SDS011;62190;51.548;5.688;2023-03-11T15:51:18;3.95;;;0.88;;
73850;SDS011;62190;51.548;5.688;2023-03-11T15:53:47;3.33;;;0.78;;
73850;SDS011;62190;51.548;5.688;2023-03-11T15:56:17;3.65;;;0.82;;
73850;SDS011;62190;51.548;5.688;2023-03-11T15:58:47;3.65;;;0.72;;
73850;SDS011;62190;51.548;5.688;2023-03-11T16:01:16;2.45;;;0.75;;
73850;SDS011;62190;51.548;5.688;2023-03-11T16:03:45;4.83;;;0.90;;
73850;SDS011;62190;51.548;5.688;2023-03-11T16:06:13;4.03;;;0.82;;
73850;SDS011;62190;51.548;5.688;2023-03-11T16:08:40;3.27;;;0.78;;
73850;SDS011;62190;51.548;5.688;2023-03-11T16:11:10;3.72;;;1.02;;
73850;SDS011;62190;51.548;5.688;2023-03-11T16:13:38;1.77;;;0.55;;
73850;SDS011;62190;51.548;5.688;2023-03-11T16:16:09;4.90;;;0.68;;
73850;SDS011;62190;51.548;5.688;2023-03-11T16:18:39;5.15;;;0.82;;
73850;SDS011;62190;51.548;5.688;2023-03-11T16:21:07;1.35;;;0.60;;
73850;SDS011;62190;51.548;5.688;2023-03-11T16:23:37;4.33;;;1.20;;
73850;SDS011;62190;51.548;5.688;2023-03-11T16:26:04;1.30;;;0.70;;
73850;SDS011;62190;51.548;5.688;2023-03-11T16:28:32;1.65;;;0.90;;
73850;SDS011;62190;51.548;5.688;2023-03-11T16:31:00;4.00;;;0.78;;
73850;SDS011;62190;51.548;5.688;2023-03-11T16:33:27;4.22;;;0.82;;
73850;SDS011;62190;51.548;5.688;2023-03-11T16:35:54;4.55;;;1.00;;
73850;SDS011;62190;51.548;5.688;2023-03-11T16:38:22;3.72;;;1.15;;
73850;SDS011;62190;51.548;5.688;2023-03-11T16:40:55;17.30;;;6.80;;
73850;SDS011;62190;51.548;5.688;2023-03-11T16:43:19;5.03;;;1.27;;
73850;SDS011;62190;51.548;5.688;2023-03-11T16:45:47;7.17;;;1.70;;
73850;SDS011;62190;51.548;5.688;2023-03-11T16:48:15;27.17;;;10.13;;
73850;SDS011;62190;51.548;5.688;2023-03-11T16:50:42;21.97;;;6.80;;
73850;SDS011;62190;51.548;5.688;2023-03-11T16:55:38;7.25;;;0.70;;
73850;SDS011;62190;51.548;5.688;2023-03-11T16:58:05;3.00;;;0.80;;
73850;SDS011;62190;51.548;5.688;2023-03-11T17:00:33;2.17;;;0.85;;
73850;SDS011;62190;51.548;5.688;2023-03-11T17:03:00;3.65;;;0.90;;
73850;SDS011;62190;51.548;5.688;2023-03-11T17:05:28;2.55;;;0.70;;
73850;SDS011;62190;51.548;5.688;2023-03-11T17:07:56;4.78;;;0.82;;
73850;SDS011;62190;51.548;5.688;2023-03-11T17:10:38;3.80;;;0.60;;